sensor_id;sensor_type;location;lat;lon;timestamp;noise_LAeq;noise_LA_min;noise_LA_max;noise_LA01;noise_LA95
72415;Laerm;60995;52.154;4.498;2023-01-06T00:01:56;45.13;38.19;61.68;;
72415;Laerm;60995;52.154;4.498;2023-01-06T00:04:13;43.61;38.55;62.82;;
72415;Laerm;60995;52.154;4.498;2023-01-06T00:06:30;43.25;38.41;54.22;;
72415;Laerm;60995;52.154;4.498;2023-01-06T00:08:46;43.47;38.85;59.99;;
72415;Laerm;60995;52.154;4.498;2023-01-06T00:11:08;43.75;37.77;57.14;;
72415;Laerm;60995;52.154;4.498;2023-01-06T00:13:26;45.19;37.93;60.15;;
72415;Laerm;60995;52.154;4.498;2023-01-06T00:15:41;43.78;38.88;55.47;;
72415;Laerm;60995;52.154;4.498;2023-01-06T00:17:57;42.69;37.94;53.40;;
72415;Laerm;60995;52.154;4.498;2023-01-06T00:20:13;43.53;37.57;54.71;;
72415;Laerm;60995;52.154;4.498;2023-01-06T00:22:30;44.13;38.35;53.94;;
72415;Laerm;60995;52.154;4.498;2023-01-06T00:24:46;44.49;37.67;55.54;;
72415;Laerm;60995;52.154;4.498;2023-01-06T00:27:02;43.73;37.52;58.41;;
72415;Laerm;60995;52.154;4.498;2023-01-06T00:29:18;45.55;37.69;65.49;;
72415;Laerm;60995;52.154;4.498;2023-01-06T00:31:36;43.66;36.96;55.80;;
72415;Laerm;60995;52.154;4.498;2023-01-06T00:33:57;43.25;37.30;56.53;;
72415;Laerm;60995;52.154;4.498;2023-01-06T00:36:13;41.52;37.35;47.56;;
72415;Laerm;60995;52.154;4.498;2023-01-06T00:38:29;44.69;37.59;68.84;;
72415;Laerm;60995;52.154;4.498;2023-01-06T00:40:46;41.85;36.86;57.39;;
72415;Laerm;60995;52.154;4.498;2023-01-06T00:43:02;43.26;36.48;58.88;;
72415;Laerm;60995;52.154;4.498;2023-01-06T00:45:19;44.41;37.98;61.81;;
72415;Laerm;60995;52.154;4.498;2023-01-06T00:47:35;42.20;37.32;58.54;;
72415;Laerm;60995;52.154;4.498;2023-01-06T00:49:51;43.09;38.11;61.63;;
72415;Laerm;60995;52.154;4.498;2023-01-06T00:52:07;43.39;38.63;56.96;;
72415;Laerm;60995;52.154;4.498;2023-01-06T00:54:23;42.18;37.02;56.99;;
72415;Laerm;60995;52.154;4.498;2023-01-06T00:56:42;43.15;36.70;52.58;;
72415;Laerm;60995;52.154;4.498;2023-01-06T00:59:00;42.50;37.30;59.59;;
72415;Laerm;60995;52.154;4.498;2023-01-06T01:01:16;44.17;36.87;55.31;;
72415;Laerm;60995;52.154;4.498;2023-01-06T01:03:34;41.74;36.68;61.31;;
72415;Laerm;60995;52.154;4.498;2023-01-06T01:05:50;44.68;36.46;72.06;;
72415;Laerm;60995;52.154;4.498;2023-01-06T01:08:06;40.22;35.75;47.04;;
72415;Laerm;60995;52.154;4.498;2023-01-06T01:10:22;41.00;35.98;55.03;;
72415;Laerm;60995;52.154;4.498;2023-01-06T01:12:38;42.28;36.01;59.50;;
72415;Laerm;60995;52.154;4.498;2023-01-06T01:14:54;41.62;36.53;51.02;;
72415;Laerm;60995;52.154;4.498;2023-01-06T01:17:12;43.05;37.14;52.53;;
72415;Laerm;60995;52.154;4.498;2023-01-06T01:19:28;42.79;36.68;58.06;;
72415;Laerm;60995;52.154;4.498;2023-01-06T01:21:45;41.70;36.79;55.97;;
72415;Laerm;60995;52.154;4.498;2023-01-06T01:24:01;41.24;36.52;59.65;;
72415;Laerm;60995;52.154;4.498;2023-01-06T01:26:18;42.86;36.45;61.29;;
72415;Laerm;60995;52.154;4.498;2023-01-06T01:28:34;41.95;35.80;57.88;;
72415;Laerm;60995;52.154;4.498;2023-01-06T01:30:57;42.06;36.50;58.40;;
72415;Laerm;60995;52.154;4.498;2023-01-06T01:33:14;51.01;37.36;75.94;;
72415;Laerm;60995;52.154;4.498;2023-01-06T01:35:30;57.51;37.23;75.16;;
72415;Laerm;60995;52.154;4.498;2023-01-06T01:37:46;55.83;36.63;79.86;;
72415;Laerm;60995;52.154;4.498;2023-01-06T01:40:02;43.10;37.64;56.73;;
72415;Laerm;60995;52.154;4.498;2023-01-06T01:42:19;42.63;37.06;59.31;;
72415;Laerm;60995;52.154;4.498;2023-01-06T01:44:58;42.14;36.91;50.54;;
72415;Laerm;60995;52.154;4.498;2023-01-06T01:47:19;41.10;36.76;52.05;;
72415;Laerm;60995;52.154;4.498;2023-01-06T01:49:38;41.80;37.18;52.40;;
72415;Laerm;60995;52.154;4.498;2023-01-06T01:51:56;41.15;35.78;55.62;;
72415;Laerm;60995;52.154;4.498;2023-01-06T01:54:20;41.30;36.58;48.48;;
72415;Laerm;60995;52.154;4.498;2023-01-06T01:56:39;42.95;37.49;56.11;;
72415;Laerm;60995;52.154;4.498;2023-01-06T01:59:11;43.21;36.75;60.68;;
72415;Laerm;60995;52.154;4.498;2023-01-06T02:01:28;40.74;36.11;48.61;;
72415;Laerm;60995;52.154;4.498;2023-01-06T02:03:44;41.96;37.25;62.99;;
72415;Laerm;60995;52.154;4.498;2023-01-06T02:06:03;41.43;36.71;51.93;;
72415;Laerm;60995;52.154;4.498;2023-01-06T02:08:28;43.39;36.86;53.63;;
72415;Laerm;60995;52.154;4.498;2023-01-06T02:10:47;41.44;37.04;54.08;;
72415;Laerm;60995;52.154;4.498;2023-01-06T02:13:03;43.29;37.91;54.35;;
72415;Laerm;60995;52.154;4.498;2023-01-06T02:15:24;41.71;36.78;57.56;;
72415;Laerm;60995;52.154;4.498;2023-01-06T02:28:43;42.58;36.79;53.93;;
72415;Laerm;60995;52.154;4.498;2023-01-06T02:33:51;42.05;36.48;55.35;;
72415;Laerm;60995;52.154;4.498;2023-01-06T02:36:21;42.35;37.51;53.61;;
72415;Laerm;60995;52.154;4.498;2023-01-06T02:44:00;43.77;37.04;57.24;;
72415;Laerm;60995;52.154;4.498;2023-01-06T02:46:33;42.99;37.76;52.28;;
72415;Laerm;60995;52.154;4.498;2023-01-06T02:49:22;42.38;37.59;57.44;;
72415;Laerm;60995;52.154;4.498;2023-01-06T02:54:36;42.18;37.98;58.57;;
72415;Laerm;60995;52.154;4.498;2023-01-06T02:57:15;41.65;36.57;55.60;;
72415;Laerm;60995;52.154;4.498;2023-01-06T02:59:36;42.09;37.68;51.29;;
72415;Laerm;60995;52.154;4.498;2023-01-06T03:01:54;41.30;36.45;57.49;;
72415;Laerm;60995;52.154;4.498;2023-01-06T03:04:17;45.97;36.90;67.69;;
72415;Laerm;60995;52.154;4.498;2023-01-06T03:06:38;43.38;38.43;57.56;;
72415;Laerm;60995;52.154;4.498;2023-01-06T03:09:00;43.84;36.74;58.25;;
72415;Laerm;60995;52.154;4.498;2023-01-06T03:11:18;43.26;38.36;60.23;;
72415;Laerm;60995;52.154;4.498;2023-01-06T03:13:45;44.79;38.83;68.33;;
72415;Laerm;60995;52.154;4.498;2023-01-06T03:16:04;42.20;36.59;50.45;;
72415;Laerm;60995;52.154;4.498;2023-01-06T03:18:20;42.90;37.44;54.27;;
72415;Laerm;60995;52.154;4.498;2023-01-06T03:20:36;45.58;38.20;61.34;;
72415;Laerm;60995;52.154;4.498;2023-01-06T03:22:53;45.77;37.28;69.48;;
72415;Laerm;60995;52.154;4.498;2023-01-06T03:25:10;43.51;38.02;56.64;;
72415;Laerm;60995;52.154;4.498;2023-01-06T03:27:26;44.24;38.13;59.36;;
72415;Laerm;60995;52.154;4.498;2023-01-06T03:29:42;45.07;38.68;63.33;;
72415;Laerm;60995;52.154;4.498;2023-01-06T03:40:08;44.17;37.95;61.50;;
72415;Laerm;60995;52.154;4.498;2023-01-06T03:47:55;45.27;39.44;54.52;;
72415;Laerm;60995;52.154;4.498;2023-01-06T03:50:22;45.86;39.40;62.45;;
72415;Laerm;60995;52.154;4.498;2023-01-06T03:52:49;43.74;39.17;56.03;;
72415;Laerm;60995;52.154;4.498;2023-01-06T03:55:13;46.76;40.31;63.05;;
72415;Laerm;60995;52.154;4.498;2023-01-06T03:57:33;44.21;39.50;56.81;;
72415;Laerm;60995;52.154;4.498;2023-01-06T03:59:58;44.32;39.40;56.91;;
72415;Laerm;60995;52.154;4.498;2023-01-06T04:02:18;45.64;40.94;58.47;;
72415;Laerm;60995;52.154;4.498;2023-01-06T04:04:36;47.18;39.71;67.36;;
72415;Laerm;60995;52.154;4.498;2023-01-06T04:06:52;46.05;39.85;62.02;;
72415;Laerm;60995;52.154;4.498;2023-01-06T04:09:08;45.29;40.24;51.89;;
72415;Laerm;60995;52.154;4.498;2023-01-06T04:11:24;45.35;40.37;60.47;;
72415;Laerm;60995;52.154;4.498;2023-01-06T04:13:59;46.57;41.17;66.32;;
72415;Laerm;60995;52.154;4.498;2023-01-06T04:16:15;46.46;41.81;60.92;;
72415;Laerm;60995;52.154;4.498;2023-01-06T04:18:31;46.93;41.98;62.32;;
72415;Laerm;60995;52.154;4.498;2023-01-06T04:20:47;46.85;41.27;59.69;;
72415;Laerm;60995;52.154;4.498;2023-01-06T04:23:04;46.45;41.17;59.25;;
72415;Laerm;60995;52.154;4.498;2023-01-06T04:25:20;47.08;41.01;59.12;;
72415;Laerm;60995;52.154;4.498;2023-01-06T04:27:37;45.92;40.91;52.18;;
72415;Laerm;60995;52.154;4.498;2023-01-06T04:29:53;47.90;41.70;65.62;;
72415;Laerm;60995;52.154;4.498;2023-01-06T04:32:09;46.80;42.04;52.49;;
72415;Laerm;60995;52.154;4.498;2023-01-06T04:34:25;46.85;41.20;66.95;;
72415;Laerm;60995;52.154;4.498;2023-01-06T04:36:41;45.88;41.24;56.94;;
72415;Laerm;60995;52.154;4.498;2023-01-06T04:38:57;46.89;40.66;54.16;;
72415;Laerm;60995;52.154;4.498;2023-01-06T04:41:13;49.51;43.31;73.03;;
72415;Laerm;60995;52.154;4.498;2023-01-06T04:43:29;49.05;43.69;62.34;;
72415;Laerm;60995;52.154;4.498;2023-01-06T04:45:46;49.01;43.27;59.61;;
72415;Laerm;60995;52.154;4.498;2023-01-06T04:48:02;50.31;45.29;59.83;;
72415;Laerm;60995;52.154;4.498;2023-01-06T04:50:18;50.00;45.16;59.97;;
72415;Laerm;60995;52.154;4.498;2023-01-06T04:52:34;52.67;47.82;65.49;;
72415;Laerm;60995;52.154;4.498;2023-01-06T04:54:50;52.73;47.09;66.81;;
72415;Laerm;60995;52.154;4.498;2023-01-06T04:57:06;52.55;46.30;66.74;;
72415;Laerm;60995;52.154;4.498;2023-01-06T04:59:22;50.78;45.21;62.80;;
72415;Laerm;60995;52.154;4.498;2023-01-06T05:01:38;50.23;44.80;64.49;;
72415;Laerm;60995;52.154;4.498;2023-01-06T05:03:55;50.24;44.52;61.32;;
72415;Laerm;60995;52.154;4.498;2023-01-06T05:06:11;50.97;45.27;65.85;;
72415;Laerm;60995;52.154;4.498;2023-01-06T05:08:28;50.47;44.15;71.31;;
72415;Laerm;60995;52.154;4.498;2023-01-06T05:10:44;49.59;44.00;60.67;;
72415;Laerm;60995;52.154;4.498;2023-01-06T05:13:00;49.47;43.83;59.60;;
72415;Laerm;60995;52.154;4.498;2023-01-06T05:15:16;49.50;43.74;60.77;;
72415;Laerm;60995;52.154;4.498;2023-01-06T05:17:32;49.32;44.08;60.63;;
72415;Laerm;60995;52.154;4.498;2023-01-06T05:19:48;49.02;43.86;62.48;;
72415;Laerm;60995;52.154;4.498;2023-01-06T05:22:05;50.00;44.60;61.72;;
72415;Laerm;60995;52.154;4.498;2023-01-06T05:24:21;50.77;45.25;61.36;;
72415;Laerm;60995;52.154;4.498;2023-01-06T05:26:37;50.78;45.88;60.72;;
72415;Laerm;60995;52.154;4.498;2023-01-06T05:28:53;50.59;44.33;60.86;;
72415;Laerm;60995;52.154;4.498;2023-01-06T05:31:10;49.86;44.85;62.42;;
72415;Laerm;60995;52.154;4.498;2023-01-06T05:33:27;50.52;44.51;58.72;;
72415;Laerm;60995;52.154;4.498;2023-01-06T05:35:43;51.03;45.09;70.51;;
72415;Laerm;60995;52.154;4.498;2023-01-06T05:37:59;50.77;44.42;66.13;;
72415;Laerm;60995;52.154;4.498;2023-01-06T05:40:15;50.40;44.73;60.08;;
72415;Laerm;60995;52.154;4.498;2023-01-06T05:42:31;49.40;44.19;59.06;;
72415;Laerm;60995;52.154;4.498;2023-01-06T05:44:47;50.03;44.20;60.20;;
72415;Laerm;60995;52.154;4.498;2023-01-06T05:47:03;50.43;44.51;60.63;;
72415;Laerm;60995;52.154;4.498;2023-01-06T05:49:19;50.98;45.67;59.50;;
72415;Laerm;60995;52.154;4.498;2023-01-06T05:51:35;50.75;45.01;62.33;;
72415;Laerm;60995;52.154;4.498;2023-01-06T05:53:51;50.70;44.26;66.16;;
72415;Laerm;60995;52.154;4.498;2023-01-06T05:56:10;51.13;45.99;61.55;;
72415;Laerm;60995;52.154;4.498;2023-01-06T05:58:26;52.89;45.71;69.40;;
72415;Laerm;60995;52.154;4.498;2023-01-06T06:00:43;54.39;45.60;66.78;;
72415;Laerm;60995;52.154;4.498;2023-01-06T06:02:59;53.28;46.12;74.15;;
72415;Laerm;60995;52.154;4.498;2023-01-06T06:05:15;52.61;46.85;64.64;;
72415;Laerm;60995;52.154;4.498;2023-01-06T06:07:31;56.78;50.35;70.71;;
72415;Laerm;60995;52.154;4.498;2023-01-06T06:09:47;58.75;53.99;68.69;;
72415;Laerm;60995;52.154;4.498;2023-01-06T06:12:03;57.96;53.63;65.67;;
72415;Laerm;60995;52.154;4.498;2023-01-06T06:14:19;56.97;51.14;67.71;;
72415;Laerm;60995;52.154;4.498;2023-01-06T06:16:36;55.04;50.37;64.66;;
72415;Laerm;60995;52.154;4.498;2023-01-06T06:18:54;54.50;48.06;63.38;;
72415;Laerm;60995;52.154;4.498;2023-01-06T06:21:16;53.57;46.94;66.01;;
72415;Laerm;60995;52.154;4.498;2023-01-06T06:23:32;52.44;47.07;61.81;;
72415;Laerm;60995;52.154;4.498;2023-01-06T06:25:49;52.46;46.94;65.50;;
72415;Laerm;60995;52.154;4.498;2023-01-06T06:28:05;51.13;46.75;61.30;;
72415;Laerm;60995;52.154;4.498;2023-01-06T06:30:21;52.84;46.11;63.75;;
72415;Laerm;60995;52.154;4.498;2023-01-06T06:32:37;51.53;46.55;62.75;;
72415;Laerm;60995;52.154;4.498;2023-01-06T06:34:53;52.92;45.49;66.43;;
72415;Laerm;60995;52.154;4.498;2023-01-06T06:37:09;51.42;45.75;63.40;;
72415;Laerm;60995;52.154;4.498;2023-01-06T06:39:25;50.21;44.99;58.47;;
72415;Laerm;60995;52.154;4.498;2023-01-06T06:41:41;49.82;44.98;65.41;;
72415;Laerm;60995;52.154;4.498;2023-01-06T06:43:57;54.25;45.43;72.42;;
72415;Laerm;60995;52.154;4.498;2023-01-06T06:46:14;52.45;45.36;64.84;;
72415;Laerm;60995;52.154;4.498;2023-01-06T06:48:30;55.25;45.82;70.24;;
72415;Laerm;60995;52.154;4.498;2023-01-06T06:53:13;49.59;43.82;62.72;;
72415;Laerm;60995;52.154;4.498;2023-01-06T06:55:29;52.26;43.22;66.94;;
72415;Laerm;60995;52.154;4.498;2023-01-06T06:57:45;51.54;44.25;65.25;;
72415;Laerm;60995;52.154;4.498;2023-01-06T07:00:02;49.31;43.77;65.20;;
72415;Laerm;60995;52.154;4.498;2023-01-06T07:02:19;49.88;43.75;61.45;;
72415;Laerm;60995;52.154;4.498;2023-01-06T07:04:35;50.04;43.38;58.98;;
72415;Laerm;60995;52.154;4.498;2023-01-06T07:06:51;48.86;43.41;58.47;;
72415;Laerm;60995;52.154;4.498;2023-01-06T07:09:07;52.23;43.03;67.10;;
72415;Laerm;60995;52.154;4.498;2023-01-06T07:11:23;49.19;41.68;63.33;;
72415;Laerm;60995;52.154;4.498;2023-01-06T07:13:39;49.58;42.41;61.65;;
72415;Laerm;60995;52.154;4.498;2023-01-06T07:15:55;49.29;42.37;56.89;;
72415;Laerm;60995;52.154;4.498;2023-01-06T07:18:11;48.94;42.97;61.67;;
72415;Laerm;60995;52.154;4.498;2023-01-06T07:20:29;50.18;41.07;60.79;;
72415;Laerm;60995;52.154;4.498;2023-01-06T07:22:45;48.51;42.49;55.89;;
72415;Laerm;60995;52.154;4.498;2023-01-06T07:25:01;50.61;42.74;58.87;;
72415;Laerm;60995;52.154;4.498;2023-01-06T07:27:17;50.62;42.69;59.90;;
72415;Laerm;60995;52.154;4.498;2023-01-06T07:29:33;49.73;41.98;63.12;;
72415;Laerm;60995;52.154;4.498;2023-01-06T07:31:50;49.87;41.87;58.49;;
72415;Laerm;60995;52.154;4.498;2023-01-06T07:34:06;48.24;43.07;55.83;;
72415;Laerm;60995;52.154;4.498;2023-01-06T07:36:22;52.03;43.62;62.10;;
72415;Laerm;60995;52.154;4.498;2023-01-06T07:38:38;51.14;44.71;60.18;;
72415;Laerm;60995;52.154;4.498;2023-01-06T07:40:58;50.37;45.04;58.51;;
72415;Laerm;60995;52.154;4.498;2023-01-06T07:43:15;50.70;44.69;59.81;;
72415;Laerm;60995;52.154;4.498;2023-01-06T07:45:32;56.26;47.41;67.01;;
72415;Laerm;60995;52.154;4.498;2023-01-06T07:47:48;50.78;43.06;60.11;;
72415;Laerm;60995;52.154;4.498;2023-01-06T07:50:04;49.66;42.28;59.87;;
72415;Laerm;60995;52.154;4.498;2023-01-06T07:52:20;54.30;45.07;61.72;;
72415;Laerm;60995;52.154;4.498;2023-01-06T07:54:36;49.08;42.25;66.09;;
72415;Laerm;60995;52.154;4.498;2023-01-06T07:56:52;50.29;42.95;64.28;;
72415;Laerm;60995;52.154;4.498;2023-01-06T07:59:09;50.05;42.45;61.23;;
72415;Laerm;60995;52.154;4.498;2023-01-06T08:01:25;49.83;42.38;67.46;;
72415;Laerm;60995;52.154;4.498;2023-01-06T08:03:41;51.43;41.79;67.60;;
72415;Laerm;60995;52.154;4.498;2023-01-06T08:05:57;48.96;41.62;67.24;;
72415;Laerm;60995;52.154;4.498;2023-01-06T08:08:13;49.56;40.70;65.83;;
72415;Laerm;60995;52.154;4.498;2023-01-06T08:10:29;50.11;41.88;64.28;;
72415;Laerm;60995;52.154;4.498;2023-01-06T08:12:45;48.76;42.73;62.04;;
72415;Laerm;60995;52.154;4.498;2023-01-06T08:15:02;51.08;42.72;62.99;;
72415;Laerm;60995;52.154;4.498;2023-01-06T08:17:18;48.72;42.35;56.29;;
72415;Laerm;60995;52.154;4.498;2023-01-06T08:19:34;49.11;42.42;59.05;;
72415;Laerm;60995;52.154;4.498;2023-01-06T08:21:51;49.56;40.80;59.22;;
72415;Laerm;60995;52.154;4.498;2023-01-06T08:24:07;48.21;41.93;54.96;;
72415;Laerm;60995;52.154;4.498;2023-01-06T08:26:23;48.79;42.30;56.01;;
72415;Laerm;60995;52.154;4.498;2023-01-06T08:28:40;50.74;42.28;66.83;;
72415;Laerm;60995;52.154;4.498;2023-01-06T08:30:57;48.45;41.39;65.68;;
72415;Laerm;60995;52.154;4.498;2023-01-06T08:33:13;49.47;43.44;61.37;;
72415;Laerm;60995;52.154;4.498;2023-01-06T08:35:29;49.97;43.16;60.94;;
72415;Laerm;60995;52.154;4.498;2023-01-06T08:37:45;50.49;43.62;69.21;;
72415;Laerm;60995;52.154;4.498;2023-01-06T08:40:02;49.64;43.06;63.42;;
72415;Laerm;60995;52.154;4.498;2023-01-06T08:42:18;48.91;43.11;55.29;;
72415;Laerm;60995;52.154;4.498;2023-01-06T08:44:34;49.61;43.04;63.80;;
72415;Laerm;60995;52.154;4.498;2023-01-06T08:46:50;49.63;43.95;60.28;;
72415;Laerm;60995;52.154;4.498;2023-01-06T08:49:06;49.61;43.08;70.43;;
72415;Laerm;60995;52.154;4.498;2023-01-06T08:51:23;49.88;41.89;61.06;;
72415;Laerm;60995;52.154;4.498;2023-01-06T08:53:43;50.82;42.79;60.45;;
72415;Laerm;60995;52.154;4.498;2023-01-06T08:55:59;51.18;43.36;62.88;;
72415;Laerm;60995;52.154;4.498;2023-01-06T08:58:15;49.73;44.04;62.44;;
72415;Laerm;60995;52.154;4.498;2023-01-06T09:00:31;51.08;44.16;59.56;;
72415;Laerm;60995;52.154;4.498;2023-01-06T09:02:48;50.59;42.50;59.41;;
72415;Laerm;60995;52.154;4.498;2023-01-06T09:05:04;49.91;43.06;60.44;;
72415;Laerm;60995;52.154;4.498;2023-01-06T09:07:20;49.46;42.22;60.79;;
72415;Laerm;60995;52.154;4.498;2023-01-06T09:09:36;49.66;42.33;64.03;;
72415;Laerm;60995;52.154;4.498;2023-01-06T09:11:52;51.00;42.73;67.94;;
72415;Laerm;60995;52.154;4.498;2023-01-06T09:14:10;49.36;41.59;60.15;;
72415;Laerm;60995;52.154;4.498;2023-01-06T09:16:26;50.79;42.93;64.49;;
72415;Laerm;60995;52.154;4.498;2023-01-06T09:18:42;51.61;43.31;73.10;;
72415;Laerm;60995;52.154;4.498;2023-01-06T09:21:05;50.19;44.91;60.45;;
72415;Laerm;60995;52.154;4.498;2023-01-06T09:23:21;52.04;43.84;64.02;;
72415;Laerm;60995;52.154;4.498;2023-01-06T09:25:38;50.71;44.51;62.16;;
72415;Laerm;60995;52.154;4.498;2023-01-06T09:27:54;51.29;44.98;61.29;;
72415;Laerm;60995;52.154;4.498;2023-01-06T09:30:11;49.82;43.69;68.49;;
72415;Laerm;60995;52.154;4.498;2023-01-06T09:32:27;51.45;42.44;67.09;;
72415;Laerm;60995;52.154;4.498;2023-01-06T09:34:43;53.16;44.06;68.97;;
72415;Laerm;60995;52.154;4.498;2023-01-06T09:36:59;51.56;45.19;63.79;;
72415;Laerm;60995;52.154;4.498;2023-01-06T09:39:15;50.82;44.82;62.80;;
72415;Laerm;60995;52.154;4.498;2023-01-06T09:44:16;50.08;43.07;60.85;;
72415;Laerm;60995;52.154;4.498;2023-01-06T09:46:37;50.14;42.96;64.33;;
72415;Laerm;60995;52.154;4.498;2023-01-06T09:51:37;51.31;43.24;70.19;;
72415;Laerm;60995;52.154;4.498;2023-01-06T09:53:58;51.81;43.73;62.30;;
72415;Laerm;60995;52.154;4.498;2023-01-06T09:56:18;53.01;45.29;64.14;;
72415;Laerm;60995;52.154;4.498;2023-01-06T09:58:42;50.91;45.12;61.08;;
72415;Laerm;60995;52.154;4.498;2023-01-06T10:01:05;53.43;44.07;64.18;;
72415;Laerm;60995;52.154;4.498;2023-01-06T10:03:25;51.26;43.51;60.11;;
72415;Laerm;60995;52.154;4.498;2023-01-06T10:11:35;49.37;42.83;59.40;;
72415;Laerm;60995;52.154;4.498;2023-01-06T10:22:04;51.80;44.43;60.62;;
72415;Laerm;60995;52.154;4.498;2023-01-06T10:27:24;50.33;44.29;64.55;;
72415;Laerm;60995;52.154;4.498;2023-01-06T10:29:41;49.88;43.92;61.72;;
72415;Laerm;60995;52.154;4.498;2023-01-06T10:31:58;51.70;42.44;66.15;;
72415;Laerm;60995;52.154;4.498;2023-01-06T10:36:40;51.62;44.52;60.63;;
72415;Laerm;60995;52.154;4.498;2023-01-06T10:38:58;50.35;44.47;61.08;;
72415;Laerm;60995;52.154;4.498;2023-01-06T10:41:40;48.78;42.58;59.96;;
72415;Laerm;60995;52.154;4.498;2023-01-06T10:43:58;50.30;42.45;59.36;;
72415;Laerm;60995;52.154;4.498;2023-01-06T10:46:15;49.86;43.99;58.81;;
72415;Laerm;60995;52.154;4.498;2023-01-06T10:48:33;50.93;43.96;60.90;;
72415;Laerm;60995;52.154;4.498;2023-01-06T10:50:49;50.56;44.80;60.47;;
72415;Laerm;60995;52.154;4.498;2023-01-06T10:53:05;54.02;44.28;79.65;;
72415;Laerm;60995;52.154;4.498;2023-01-06T10:55:56;50.64;44.06;61.19;;
72415;Laerm;60995;52.154;4.498;2023-01-06T10:58:20;51.47;43.59;64.95;;
72415;Laerm;60995;52.154;4.498;2023-01-06T11:00:53;49.51;43.76;59.44;;
72415;Laerm;60995;52.154;4.498;2023-01-06T11:03:11;48.89;42.86;59.18;;
72415;Laerm;60995;52.154;4.498;2023-01-06T11:05:30;49.75;42.96;59.45;;
72415;Laerm;60995;52.154;4.498;2023-01-06T11:08:02;49.77;42.56;55.18;;
72415;Laerm;60995;52.154;4.498;2023-01-06T11:10:54;50.33;42.60;60.66;;
72415;Laerm;60995;52.154;4.498;2023-01-06T11:13:36;51.11;42.81;64.58;;
72415;Laerm;60995;52.154;4.498;2023-01-06T11:15:54;50.48;43.85;61.10;;
72415;Laerm;60995;52.154;4.498;2023-01-06T11:18:20;50.30;43.28;59.60;;
72415;Laerm;60995;52.154;4.498;2023-01-06T11:20:36;48.55;42.03;55.00;;
72415;Laerm;60995;52.154;4.498;2023-01-06T11:22:53;49.31;43.15;57.50;;
72415;Laerm;60995;52.154;4.498;2023-01-06T11:27:34;49.51;42.97;63.80;;
72415;Laerm;60995;52.154;4.498;2023-01-06T11:29:50;49.47;42.49;61.28;;
72415;Laerm;60995;52.154;4.498;2023-01-06T11:32:19;50.15;43.60;60.42;;
72415;Laerm;60995;52.154;4.498;2023-01-06T11:34:36;49.92;44.39;60.07;;
72415;Laerm;60995;52.154;4.498;2023-01-06T11:36:54;49.07;42.53;64.17;;
72415;Laerm;60995;52.154;4.498;2023-01-06T11:39:23;52.94;41.41;72.50;;
72415;Laerm;60995;52.154;4.498;2023-01-06T11:41:44;50.17;43.75;58.71;;
72415;Laerm;60995;52.154;4.498;2023-01-06T11:44:07;50.68;44.58;60.00;;
72415;Laerm;60995;52.154;4.498;2023-01-06T11:46:25;50.31;43.71;67.95;;
72415;Laerm;60995;52.154;4.498;2023-01-06T11:48:56;50.65;43.46;65.87;;
72415;Laerm;60995;52.154;4.498;2023-01-06T11:51:14;51.42;42.87;72.22;;
72415;Laerm;60995;52.154;4.498;2023-01-06T11:53:54;49.90;42.47;64.47;;
72415;Laerm;60995;52.154;4.498;2023-01-06T12:01:03;53.56;44.73;73.49;;
72415;Laerm;60995;52.154;4.498;2023-01-06T12:03:32;55.38;43.79;79.68;;
72415;Laerm;60995;52.154;4.498;2023-01-06T12:08:35;54.85;42.27;78.96;;
72415;Laerm;60995;52.154;4.498;2023-01-06T12:11:06;56.62;42.83;80.64;;
72415;Laerm;60995;52.154;4.498;2023-01-06T12:13:25;51.73;42.44;70.27;;
72415;Laerm;60995;52.154;4.498;2023-01-06T12:15:45;54.80;43.39;79.05;;
72415;Laerm;60995;52.154;4.498;2023-01-06T12:18:11;55.26;45.30;76.73;;
72415;Laerm;60995;52.154;4.498;2023-01-06T12:20:35;56.10;45.09;77.66;;
72415;Laerm;60995;52.154;4.498;2023-01-06T12:22:59;54.54;45.42;77.43;;
72415;Laerm;60995;52.154;4.498;2023-01-06T12:25:38;51.96;43.40;69.74;;
72415;Laerm;60995;52.154;4.498;2023-01-06T12:28:00;52.22;43.41;65.62;;
72415;Laerm;60995;52.154;4.498;2023-01-06T12:30:25;49.49;43.58;57.44;;
72415;Laerm;60995;52.154;4.498;2023-01-06T12:32:45;49.92;41.05;59.26;;
72415;Laerm;60995;52.154;4.498;2023-01-06T12:35:05;54.89;41.64;80.22;;
72415;Laerm;60995;52.154;4.498;2023-01-06T12:37:31;59.03;40.40;82.78;;
72415;Laerm;60995;52.154;4.498;2023-01-06T12:40:13;56.14;42.83;82.00;;
72415;Laerm;60995;52.154;4.498;2023-01-06T12:42:38;56.13;41.13;83.57;;
72415;Laerm;60995;52.154;4.498;2023-01-06T12:45:13;52.61;42.11;74.27;;
72415;Laerm;60995;52.154;4.498;2023-01-06T12:47:35;49.94;43.82;64.24;;
72415;Laerm;60995;52.154;4.498;2023-01-06T12:52:31;49.59;43.59;60.40;;
72415;Laerm;60995;52.154;4.498;2023-01-06T12:54:55;50.44;44.27;60.17;;
72415;Laerm;60995;52.154;4.498;2023-01-06T13:00:31;49.69;43.55;60.17;;
72415;Laerm;60995;52.154;4.498;2023-01-06T13:13:58;49.65;43.40;61.69;;
72415;Laerm;60995;52.154;4.498;2023-01-06T13:16:55;49.58;44.02;59.70;;
72415;Laerm;60995;52.154;4.498;2023-01-06T13:19:45;50.34;42.59;64.80;;
72415;Laerm;60995;52.154;4.498;2023-01-06T13:22:05;49.31;43.12;61.01;;
72415;Laerm;60995;52.154;4.498;2023-01-06T13:24:45;51.32;44.05;60.50;;
72415;Laerm;60995;52.154;4.498;2023-01-06T13:41:01;50.81;44.77;62.82;;
72415;Laerm;60995;52.154;4.498;2023-01-06T13:43:25;50.84;46.11;61.59;;
72415;Laerm;60995;52.154;4.498;2023-01-06T13:45:46;50.45;44.66;60.89;;
72415;Laerm;60995;52.154;4.498;2023-01-06T13:48:05;55.00;43.49;86.89;;
72415;Laerm;60995;52.154;4.498;2023-01-06T13:50:25;49.65;42.94;61.56;;
72415;Laerm;60995;52.154;4.498;2023-01-06T13:52:41;51.65;42.73;66.90;;
72415;Laerm;60995;52.154;4.498;2023-01-06T13:55:22;52.10;43.60;67.54;;
72415;Laerm;60995;52.154;4.498;2023-01-06T13:57:39;53.89;47.65;66.41;;
72415;Laerm;60995;52.154;4.498;2023-01-06T14:05:03;52.19;46.79;60.95;;
72415;Laerm;60995;52.154;4.498;2023-01-06T14:07:30;52.30;47.43;61.17;;
72415;Laerm;60995;52.154;4.498;2023-01-06T14:09:48;52.30;46.91;60.68;;
72415;Laerm;60995;52.154;4.498;2023-01-06T14:12:14;51.99;47.18;60.71;;
72415;Laerm;60995;52.154;4.498;2023-01-06T14:14:35;51.89;45.82;57.27;;
72415;Laerm;60995;52.154;4.498;2023-01-06T14:16:53;51.72;45.79;57.27;;
72415;Laerm;60995;52.154;4.498;2023-01-06T14:19:35;52.08;46.58;61.02;;
72415;Laerm;60995;52.154;4.498;2023-01-06T14:21:54;52.64;46.49;62.70;;
72415;Laerm;60995;52.154;4.498;2023-01-06T14:24:27;52.05;46.56;64.12;;
72415;Laerm;60995;52.154;4.498;2023-01-06T14:26:52;52.90;46.57;66.97;;
72415;Laerm;60995;52.154;4.498;2023-01-06T14:31:57;50.50;43.95;59.54;;
72415;Laerm;60995;52.154;4.498;2023-01-06T14:34:16;50.93;44.96;59.21;;
72415;Laerm;60995;52.154;4.498;2023-01-06T14:36:34;50.89;44.52;60.03;;
72415;Laerm;60995;52.154;4.498;2023-01-06T14:38:57;50.24;44.80;59.28;;
72415;Laerm;60995;52.154;4.498;2023-01-06T14:41:48;50.65;43.75;60.39;;
72415;Laerm;60995;52.154;4.498;2023-01-06T14:44:17;50.72;43.65;60.88;;
72415;Laerm;60995;52.154;4.498;2023-01-06T14:49:01;50.67;45.11;61.70;;
72415;Laerm;60995;52.154;4.498;2023-01-06T14:51:20;50.58;45.49;60.40;;
72415;Laerm;60995;52.154;4.498;2023-01-06T14:53:40;50.95;45.07;59.82;;
72415;Laerm;60995;52.154;4.498;2023-01-06T14:55:59;51.03;44.31;61.19;;